Time;durP1;ratioP1;P1;durP2;ratioP2;P2;SDS_P1;SDS_P2;PMS_P1;PMS_P2;Temp;Humidity;BMP_temperature;BMP_pressure;BME280_temperature;BME280_humidity;BME280_pressure;Samples;Min_cycle;Max_cycle;Signal;HPM_P1;HPM_P2
2021/01/04 00:01:43;;;;;;;32.00;11.70;;;20.60;28.30;;;;;;5087137;28;20056;-59
2021/01/04 00:04:25;;;;;;;23.00;12.50;;;20.50;28.60;;;;;;5092612;28;20052;-56
2021/01/04 00:07:03;;;;;;;26.35;12.27;;;20.30;28.70;;;;;;5082053;28;20497;-58
2021/01/04 00:09:39;;;;;;;22.13;10.73;;;20.30;28.90;;;;;;5086018;28;20123;-60
2021/01/04 00:12:23;;;;;;;24.40;10.55;;;20.20;28.90;;;;;;5081959;28;20127;-60
2021/01/04 00:14:53;;;;;;;20.63;9.90;;;20.10;28.60;;;;;;5087790;28;20079;-58
2021/01/04 00:17:42;;;;;;;22.13;11.07;;;20.00;29.20;;;;;;5085927;28;20504;-61
2021/01/04 00:20:41;;;;;;;26.98;11.35;;;19.90;29.10;;;;;;5082766;28;20067;-57
2021/01/04 00:23:27;;;;;;;28.05;12.23;;;19.80;29.50;;;;;;5089152;28;20059;-59
2021/01/04 00:26:02;;;;;;;27.85;12.15;;;19.70;29.70;;;;;;5086642;28;20093;-61
2021/01/04 00:28:34;;;;;;;22.05;11.30;;;19.60;30.00;;;;;;5088647;28;20497;-59
2021/01/04 00:31:09;;;;;;;20.52;11.32;;;19.50;30.40;;;;;;5085719;28;20066;-60
2021/01/04 00:33:53;;;;;;;33.25;12.38;;;19.40;30.40;;;;;;5094855;28;20112;-62
2021/01/04 00:36:26;;;;;;;36.78;12.13;;;19.30;30.70;;;;;;5083839;28;20088;-60
2021/01/04 00:38:52;;;;;;;31.73;12.90;;;19.20;31.10;;;;;;5080524;28;20049;-60
2021/01/04 00:41:22;;;;;;;;;;;19.10;31.40;;;;;;5083571;28;20060;-60
2021/01/04 00:43:57;;;;;;;29.58;14.00;;;19.00;31.70;;;;;;5079291;28;19950;-57
2021/01/04 00:46:34;;;;;;;37.05;14.77;;;18.80;32.00;;;;;;5078710;28;20474;-59
2021/01/04 00:49:06;;;;;;;26.63;11.90;;;18.70;32.50;;;;;;5061876;28;20185;-59
2021/01/04 00:51:46;;;;;;;23.60;11.63;;;18.60;32.90;;;;;;5077635;28;20649;-60
2021/01/04 00:54:52;;;;;;;27.23;14.10;;;18.50;33.10;;;;;;5079248;28;20093;-56
2021/01/04 00:57:55;;;;;;;33.95;14.35;;;18.40;33.60;;;;;;5073804;28;20195;-59
2021/01/04 01:00:34;;;;;;;29.52;13.55;;;18.30;34.20;;;;;;5082859;28;20057;-60
2021/01/04 01:03:28;;;;;;;31.83;14.30;;;18.10;34.70;;;;;;5076589;28;20100;-60
2021/01/04 01:06:19;;;;;;;44.63;15.65;;;18.00;35.70;;;;;;5082900;27;20087;-58
2021/01/04 01:08:46;;;;;;;38.70;16.30;;;17.90;35.70;;;;;;5086840;28;20069;-59
2021/01/04 01:11:19;;;;;;;32.80;16.08;;;17.80;36.00;;;;;;5085637;28;20075;-60
2021/01/04 01:14:02;;;;;;;38.20;16.30;;;17.60;36.20;;;;;;5063966;28;20090;-56
2021/01/04 01:16:57;;;;;;;39.65;15.23;;;17.60;36.80;;;;;;5059635;28;20133;-61
2021/01/04 01:19:28;;;;;;;37.90;15.93;;;17.40;37.30;;;;;;5083542;28;20127;-60
2021/01/04 01:21:57;;;;;;;35.42;16.85;;;17.30;38.20;;;;;;5083579;28;20065;-59
2021/01/04 01:24:25;;;;;;;40.45;18.90;;;17.20;38.40;;;;;;5083702;28;20105;-59
2021/01/04 01:26:54;;;;;;;59.13;26.67;;;17.10;39.00;;;;;;5082864;28;20066;-62
2021/01/04 01:29:33;;;;;;;76.18;35.88;;;17.00;39.30;;;;;;5084061;28;20078;-59
2021/01/04 01:32:36;;;;;;;55.35;30.77;;;16.90;39.60;;;;;;5082233;28;20065;-60
2021/01/04 01:35:12;;;;;;;62.95;29.08;;;16.80;40.00;;;;;;5080370;28;20102;-58
2021/01/04 01:37:54;;;;;;;48.08;25.48;;;16.60;40.20;;;;;;5081438;28;20154;-59
2021/01/04 01:40:51;;;;;;;59.13;26.15;;;16.50;40.40;;;;;;5085087;28;20083;-58
2021/01/04 01:43:36;;;;;;;59.13;23.52;;;16.40;40.40;;;;;;5080158;28;20073;-60
2021/01/04 01:46:11;;;;;;;57.28;24.02;;;16.30;40.80;;;;;;5085827;28;20138;-59
2021/01/04 01:48:42;;;;;;;58.35;22.77;;;16.10;41.20;;;;;;5082720;28;20062;-56
2021/01/04 01:52:01;;;;;;;51.47;21.05;;;16.10;41.50;;;;;;5084152;28;20120;-57
2021/01/04 01:55:00;;;;;;;69.33;29.60;;;16.00;42.00;;;;;;5076626;28;20359;-59
2021/01/04 01:57:38;;;;;;;67.57;32.08;;;15.90;42.20;;;;;;5000843;28;20730;-59
2021/01/04 02:00:08;;;;;;;83.55;35.67;;;15.80;42.50;;;;;;5084009;28;20545;-56
2021/01/04 02:02:57;;;;;;;88.05;39.72;;;15.80;43.00;;;;;;5084234;28;20079;-57
2021/01/04 02:06:01;;;;;;;109.07;46.92;;;15.70;43.50;;;;;;5086975;28;20091;-59
2021/01/04 02:08:31;;;;;;;103.53;47.10;;;15.60;43.30;;;;;;5085159;28;20078;-59
2021/01/04 02:11:02;;;;;;;88.07;43.53;;;15.50;43.50;;;;;;5085339;28;20516;-59
2021/01/04 02:13:44;;;;;;;98.90;44.35;;;15.40;43.60;;;;;;5084851;28;20150;-57
2021/01/04 02:16:18;;;;;;;102.90;42.15;;;15.30;43.90;;;;;;5085358;28;20068;-61
2021/01/04 02:18:44;;;;;;;106.43;42.05;;;15.20;44.10;;;;;;5083874;28;20403;-61
2021/01/04 02:21:14;;;;;;;109.40;42.67;;;15.30;44.60;;;;;;5086278;28;20399;-61
2021/01/04 02:23:47;;;;;;;94.43;42.78;;;15.20;44.80;;;;;;5082917;28;20075;-60
2021/01/04 02:26:21;;;;;;;89.20;42.83;;;15.20;45.10;;;;;;5087356;28;20452;-60
2021/01/04 02:28:57;;;;;;;90.63;43.08;;;15.10;44.90;;;;;;5084869;28;20067;-60
2021/01/04 02:31:24;;;;;;;98.65;45.08;;;15.00;45.20;;;;;;5082852;28;20082;-60
2021/01/04 02:33:52;;;;;;;99.93;43.40;;;14.90;45.40;;;;;;5085537;28;20116;-58
2021/01/04 02:36:20;;;;;;;112.32;39.50;;;14.90;45.50;;;;;;5085631;28;20075;-61
2021/01/04 02:39:02;;;;;;;87.95;35.40;;;14.80;45.80;;;;;;5080896;28;20255;-60
2021/01/04 02:41:57;;;;;;;73.40;33.78;;;14.80;45.70;;;;;;5067114;28;20063;-61
2021/01/04 02:44:26;;;;;;;80.47;33.42;;;14.80;45.70;;;;;;5056033;28;20445;-60
2021/01/04 02:47:19;;;;;;;82.85;34.95;;;14.70;45.80;;;;;;5082471;28;20068;-59
2021/01/04 02:50:24;;;;;;;83.78;33.17;;;14.70;46.40;;;;;;5083068;28;20141;-58
2021/01/04 02:53:20;;;;;;;84.70;34.13;;;14.60;46.50;;;;;;5051747;28;20098;-60
2021/01/04 02:56:01;;;;;;;93.95;38.22;;;14.60;46.90;;;;;;5054370;28;20146;-61
2021/01/04 02:58:33;;;;;;;96.72;37.38;;;14.50;46.90;;;;;;5083085;28;20065;-59
2021/01/04 03:01:14;;;;;;;95.30;36.00;;;14.40;46.90;;;;;;5084817;28;20130;-58
2021/01/04 03:03:44;;;;;;;82.57;34.90;;;14.40;47.00;;;;;;5079860;28;20072;-59
2021/01/04 03:06:18;;;;;;;71.03;35.67;;;14.40;47.30;;;;;;5066693;28;20804;-62
2021/01/04 03:08:45;;;;;;;88.20;36.28;;;14.30;47.30;;;;;;5084200;28;20465;-59
2021/01/04 03:11:13;;;;;;;;;;;14.30;47.40;;;;;;5085221;28;20497;-61
2021/01/04 03:14:10;;;;;;;79.20;34.28;;;14.20;47.30;;;;;;5085105;28;19975;-58
2021/01/04 03:17:07;;;;;;;78.53;34.20;;;14.20;47.80;;;;;;5081675;28;20065;-58
2021/01/04 03:19:39;;;;;;;68.20;33.88;;;14.10;47.70;;;;;;5075654;28;20063;-60
2021/01/04 03:22:09;;;;;;;84.05;33.72;;;14.10;47.90;;;;;;5088835;28;20102;-57
2021/01/04 03:24:36;;;;;;;70.70;32.50;;;14.00;48.00;;;;;;5084227;28;20160;-62
2021/01/04 03:27:07;;;;;;;;;;;14.00;48.20;;;;;;5086488;28;20470;-60
2021/01/04 03:29:33;;;;;;;92.63;38.20;;;13.90;48.40;;;;;;5082271;28;19951;-60
2021/01/04 03:31:59;;;;;;;;;;;13.90;48.50;;;;;;5090284;28;20067;-60
2021/01/04 03:34:27;;;;;;;72.30;30.85;;;13.80;48.10;;;;;;5106252;28;20062;-60
2021/01/04 03:36:54;;;;;;;71.32;29.58;;;13.80;48.30;;;;;;5104755;28;20136;-60
2021/01/04 03:39:20;;;;;;;;;;;13.80;48.20;;;;;;5109736;28;20104;-59
2021/01/04 03:41:47;;;;;;;74.60;29.42;;;13.80;48.20;;;;;;5102999;28;19986;-59
2021/01/04 03:44:14;;;;;;;70.75;30.48;;;13.70;47.90;;;;;;5104577;28;20533;-60
2021/01/04 03:46:47;;;;;;;65.90;28.85;;;13.70;47.90;;;;;;5105687;28;20068;-60
2021/01/04 03:49:13;;;;;;;77.90;29.50;;;13.70;48.00;;;;;;5096787;28;20080;-59
2021/01/04 03:51:39;;;;;;;;;;;13.70;48.40;;;;;;5104026;28;20068;-60
2021/01/04 03:54:06;;;;;;;72.68;28.98;;;13.70;48.70;;;;;;5106226;28;19975;-60
2021/01/04 03:56:32;;;;;;;;;;;13.60;48.60;;;;;;5112085;28;20063;-60
2021/01/04 03:58:59;;;;;;;66.05;28.77;;;13.60;48.50;;;;;;5109978;28;19962;-55
2021/01/04 04:01:25;;;;;;;79.93;33.45;;;13.60;48.50;;;;;;5108560;28;20087;-58
2021/01/04 04:03:52;;;;;;;80.78;35.40;;;13.50;48.50;;;;;;5090298;28;20103;-60
2021/01/04 04:06:18;;;;;;;;;;;13.50;48.90;;;;;;5116781;27;20088;-57
2021/01/04 04:08:44;;;;;;;86.90;35.22;;;13.40;49.20;;;;;;5089840;28;19959;-58
2021/01/04 04:11:15;;;;;;;78.40;29.83;;;13.40;49.30;;;;;;5098237;28;20074;-60
2021/01/04 04:13:41;;;;;;;68.72;30.02;;;13.40;49.30;;;;;;5104234;28;20126;-60
2021/01/04 04:16:08;;;;;;;;;;;13.40;49.50;;;;;;5096049;28;20121;-61
2021/01/04 04:18:34;;;;;;;69.82;27.42;;;13.40;49.60;;;;;;5108084;28;20057;-61
2021/01/04 04:21:00;;;;;;;;;;;13.30;49.50;;;;;;5106301;28;20119;-62
2021/01/04 04:23:27;;;;;;;68.38;26.70;;;13.30;49.30;;;;;;5106190;28;20403;-61
2021/01/04 04:25:53;;;;;;;;;;;13.30;49.40;;;;;;5107974;28;20144;-60
2021/01/04 04:28:19;;;;;;;64.15;27.15;;;13.20;49.50;;;;;;5108012;28;19956;-60
2021/01/04 04:30:46;;;;;;;74.93;27.20;;;13.20;50.00;;;;;;5106636;28;20067;-61
2021/01/04 04:33:12;;;;;;;82.03;28.30;;;13.20;50.10;;;;;;5107273;28;20114;-60
2021/01/04 04:35:38;;;;;;;;;;;13.20;50.20;;;;;;5106143;28;20063;-61
2021/01/04 04:38:05;;;;;;;69.15;26.90;;;13.20;50.10;;;;;;5105662;28;19952;-61
2021/01/04 04:40:33;;;;;;;114.43;28.08;;;13.20;50.10;;;;;;5107416;28;20074;-61
2021/01/04 04:43:12;;;;;;;91.13;27.10;;;13.20;50.10;;;;;;5104005;28;20082;-60
2021/01/04 04:45:40;;;;;;;95.40;25.48;;;13.20;49.80;;;;;;5104187;28;20059;-59
2021/01/04 04:48:15;;;;;;;88.65;25.73;;;13.20;49.60;;;;;;5105669;28;20473;-60
2021/01/04 04:50:48;;;;;;;82.53;24.25;;;13.20;49.40;;;;;;5105358;28;20074;-59
2021/01/04 04:53:29;;;;;;;69.63;22.40;;;13.10;49.70;;;;;;5107192;28;20092;-57
2021/01/04 04:56:41;;;;;;;53.45;22.45;;;13.10;49.70;;;;;;5102636;28;20067;-59
2021/01/04 04:59:16;;;;;;;47.83;20.92;;;13.10;49.40;;;;;;5090566;28;20064;-59
2021/01/04 05:01:49;;;;;;;56.40;22.23;;;13.00;49.60;;;;;;5103549;28;20597;-59
2021/01/04 05:04:36;;;;;;;46.75;21.40;;;12.90;49.90;;;;;;5105744;28;20083;-60
2021/01/04 05:07:09;;;;;;;;;;;12.90;50.00;;;;;;5105409;28;20449;-57
2021/01/04 05:09:53;;;;;;;42.17;19.42;;;12.90;49.80;;;;;;5104430;28;19952;-59
2021/01/04 05:12:32;;;;;;;41.10;18.88;;;12.80;50.20;;;;;;5104901;28;20067;-60
2021/01/04 05:15:26;;;;;;;55.60;20.40;;;12.70;50.00;;;;;;5103115;28;20062;-60
2021/01/04 05:18:25;;;;;;;53.60;20.00;;;12.70;50.30;;;;;;5073101;28;20430;-59
2021/01/04 05:21:19;;;;;;;55.83;20.55;;;12.70;50.40;;;;;;5101275;28;20067;-61
2021/01/04 05:24:07;;;;;;;55.25;22.10;;;12.70;50.50;;;;;;5102266;28;20105;-59
2021/01/04 05:26:52;;;;;;;55.78;21.85;;;12.70;50.80;;;;;;5104588;28;20079;-59
2021/01/04 05:29:45;;;;;;;55.20;21.45;;;12.70;50.80;;;;;;5089793;28;20064;-61
2021/01/04 05:32:39;;;;;;;56.88;22.85;;;12.70;50.70;;;;;;5086346;28;20166;-58
2021/01/04 05:35:10;;;;;;;54.42;22.70;;;12.70;51.20;;;;;;5104794;28;20074;-60
2021/01/04 05:37:52;;;;;;;66.75;22.55;;;12.60;51.50;;;;;;5102796;28;20217;-60
2021/01/04 05:40:36;;;;;;;58.25;21.02;;;12.60;51.80;;;;;;5104565;28;20143;-60
2021/01/04 05:43:14;;;;;;;52.55;22.20;;;12.50;52.00;;;;;;5106138;28;20067;-60
2021/01/04 05:45:50;;;;;;;50.45;20.98;;;12.50;52.10;;;;;;5105589;28;20073;-58
2021/01/04 05:48:35;;;;;;;61.35;20.80;;;12.40;52.30;;;;;;5106144;28;20186;-59
2021/01/04 05:51:26;;;;;;;46.28;20.27;;;12.40;52.20;;;;;;5105072;28;20592;-58
2021/01/04 05:53:53;;;;;;;61.60;20.52;;;12.40;52.50;;;;;;5104814;28;20450;-58
2021/01/04 05:56:26;;;;;;;;;;;12.30;52.90;;;;;;5107254;28;20099;-59
2021/01/04 05:59:05;;;;;;;46.70;21.35;;;12.30;53.10;;;;;;5105362;28;19957;-61
2021/01/04 06:01:31;;;;;;;51.67;21.85;;;12.30;53.00;;;;;;5107537;28;20088;-59
2021/01/04 06:03:59;;;;;;;;;;;12.30;53.20;;;;;;5086409;28;20142;-60
2021/01/04 06:06:54;;;;;;;55.40;20.63;;;12.20;53.30;;;;;;5104788;28;19979;-61
2021/01/04 06:09:23;;;;;;;45.80;19.17;;;12.10;53.30;;;;;;5107522;28;20079;-60
2021/01/04 06:11:55;;;;;;;47.58;19.58;;;12.10;53.40;;;;;;5106077;28;20082;-59
2021/01/04 06:14:34;;;;;;;46.13;19.70;;;12.10;53.70;;;;;;5085352;28;20544;-59
2021/01/04 06:17:25;;;;;;;49.85;19.90;;;12.10;54.30;;;;;;5089432;28;20075;-61
2021/01/04 06:19:54;;;;;;;53.40;20.65;;;12.00;54.30;;;;;;5105336;28;20067;-58
2021/01/04 06:22:29;;;;;;;43.58;20.58;;;12.00;54.60;;;;;;5104278;28;20164;-59
2021/01/04 06:25:06;;;;;;;39.60;19.55;;;11.90;54.80;;;;;;5105071;28;20069;-60
2021/01/04 06:27:35;;;;;;;44.17;20.50;;;11.90;54.90;;;;;;5105244;28;20524;-58
2021/01/04 06:30:15;;;;;;;54.53;20.88;;;11.90;55.20;;;;;;5106845;28;20076;-61
2021/01/04 06:32:42;;;;;;;55.70;20.90;;;11.90;55.20;;;;;;5106593;28;20134;-58
2021/01/04 06:35:20;;;;;;;44.83;21.88;;;11.90;55.20;;;;;;5104821;28;20159;-58
2021/01/04 06:37:47;;;;;;;56.67;22.45;;;11.90;54.90;;;;;;5103467;28;20085;-59
2021/01/04 06:40:32;;;;;;;58.70;22.10;;;11.90;54.70;;;;;;5107574;28;20074;-59
2021/01/04 06:43:10;;;;;;;54.65;22.38;;;11.90;54.50;;;;;;5109078;28;20563;-60
2021/01/04 06:45:46;;;;;;;50.38;21.38;;;11.90;54.50;;;;;;5109967;28;20143;-62
2021/01/04 06:48:49;;;;;;;62.60;24.73;;;11.90;55.10;;;;;;5108854;28;20588;-60
2021/01/04 06:51:46;;;;;;;53.15;23.15;;;11.80;55.00;;;;;;5102406;28;20081;-59
2021/01/04 06:54:42;;;;;;;54.85;23.00;;;11.80;55.50;;;;;;5111515;28;20094;-59
2021/01/04 06:57:27;;;;;;;59.90;25.00;;;11.70;55.70;;;;;;5104159;28;20423;-60
2021/01/04 07:00:24;;;;;;;72.85;26.10;;;11.60;55.60;;;;;;5104807;28;20062;-59
2021/01/04 07:03:28;;;;;;;91.43;28.73;;;11.60;55.60;;;;;;5109057;28;20076;-60
2021/01/04 07:06:00;;;;;;;76.72;27.67;;;11.60;55.80;;;;;;5107153;28;20077;-57
2021/01/04 07:09:01;;;;;;;79.28;30.70;;;11.60;56.00;;;;;;5109815;28;20453;-56
2021/01/04 07:11:46;;;;;;;73.55;30.20;;;11.60;56.10;;;;;;5075479;28;20089;-56
2021/01/04 07:14:31;;;;;;;88.15;34.00;;;11.60;56.10;;;;;;5106378;28;20095;-58
2021/01/04 07:17:31;;;;;;;96.43;35.92;;;11.50;56.00;;;;;;5108566;28;20066;-57
2021/01/04 07:19:58;;;;;;;103.03;38.83;;;11.40;55.90;;;;;;5109860;28;20148;-59
2021/01/04 07:22:28;;;;;;;119.90;42.05;;;11.50;55.80;;;;;;5107167;28;20077;-60
2021/01/04 07:25:16;;;;;;;113.63;40.97;;;11.40;56.00;;;;;;5105662;27;20084;-60
2021/01/04 07:28:03;;;;;;;105.82;40.47;;;11.40;55.90;;;;;;5105239;28;20100;-58
2021/01/04 07:30:50;;;;;;;109.35;39.20;;;11.40;55.80;;;;;;5090026;28;20425;-60
2021/01/04 07:33:25;;;;;;;107.83;41.53;;;11.30;56.00;;;;;;5105995;28;20111;-59
2021/01/04 07:36:18;;;;;;;122.93;45.28;;;11.30;56.40;;;;;;5106921;27;20080;-59
2021/01/04 07:39:02;;;;;;;123.93;46.40;;;11.20;55.90;;;;;;5068927;28;20099;-59
2021/01/04 07:41:54;;;;;;;142.18;46.45;;;11.20;56.50;;;;;;5106041;28;20514;-55
2021/01/04 07:44:48;;;;;;;124.75;46.13;;;11.30;56.50;;;;;;5105323;27;20074;-59
2021/01/04 07:47:49;;;;;;;140.18;46.65;;;11.30;56.10;;;;;;5107487;28;20375;-59
2021/01/04 07:51:01;;;;;;;129.77;47.55;;;11.20;56.40;;;;;;5106429;27;20073;-57
2021/01/04 07:54:08;;;;;;;129.48;47.33;;;11.30;56.60;;;;;;5089612;27;20506;-58
2021/01/04 07:57:05;;;;;;;131.07;48.80;;;11.30;56.70;;;;;;5086602;28;20434;-59
2021/01/04 07:59:35;;;;;;;132.43;46.10;;;11.30;56.40;;;;;;5109010;28;20111;-59
2021/01/04 08:02:20;;;;;;;136.70;47.60;;;11.30;56.40;;;;;;5108630;27;20391;-58
2021/01/04 08:04:46;;;;;;;120.45;48.35;;;11.30;56.60;;;;;;5111514;27;20482;-57
2021/01/04 08:07:16;;;;;;;;;;;11.30;56.60;;;;;;5087454;28;20110;-57
2021/01/04 08:09:55;;;;;;;126.47;46.08;;;11.20;56.70;;;;;;5108112;28;19997;-59
2021/01/04 08:12:40;;;;;;;131.60;45.55;;;11.20;56.90;;;;;;5105689;28;20192;-59
2021/01/04 08:15:33;;;;;;;119.60;47.25;;;11.20;56.90;;;;;;5105560;28;20079;-59
2021/01/04 08:18:10;;;;;;;144.48;48.65;;;11.20;56.90;;;;;;5108744;28;20140;-58
2021/01/04 08:20:44;;;;;;;131.98;45.17;;;11.10;56.70;;;;;;5090646;28;20075;-58
2021/01/04 08:23:57;;;;;;;129.70;46.65;;;11.10;56.90;;;;;;5106398;28;20071;-57
2021/01/04 08:26:51;;;;;;;131.68;45.90;;;11.10;57.20;;;;;;5090418;28;20412;-58
2021/01/04 08:29:45;;;;;;;123.93;46.97;;;11.10;57.00;;;;;;5106220;28;20163;-59
2021/01/04 08:32:18;;;;;;;142.85;47.42;;;11.00;57.00;;;;;;5104483;28;20075;-57
2021/01/04 08:34:46;;;;;;;172.10;48.92;;;11.00;57.50;;;;;;5082885;28;20084;-59
2021/01/04 08:37:17;;;;;;;150.65;48.13;;;11.00;57.40;;;;;;5062262;28;20072;-55
2021/01/04 08:39:50;;;;;;;149.60;46.67;;;11.00;57.20;;;;;;5064453;28;20095;-59
2021/01/04 08:42:20;;;;;;;154.68;49.10;;;11.00;57.40;;;;;;5083088;28;20140;-57
2021/01/04 08:45:03;;;;;;;161.85;45.75;;;11.10;57.10;;;;;;5085858;28;20072;-58
2021/01/04 08:47:49;;;;;;;147.68;47.72;;;11.10;57.20;;;;;;5081631;28;20098;-57
2021/01/04 08:50:37;;;;;;;142.50;46.72;;;11.00;57.70;;;;;;5081938;28;20486;-59
2021/01/04 08:53:17;;;;;;;147.15;47.28;;;11.00;58.30;;;;;;5082859;28;20238;-55
2021/01/04 08:55:45;;;;;;;138.45;45.17;;;11.00;57.60;;;;;;5079789;28;20075;-59
2021/01/04 08:58:21;;;;;;;154.27;46.80;;;10.90;57.70;;;;;;5079283;28;20225;-57
2021/01/04 09:01:27;;;;;;;137.40;47.70;;;11.00;57.70;;;;;;5084855;28;20073;-57
2021/01/04 09:04:11;;;;;;;138.13;47.92;;;10.90;58.00;;;;;;5070699;28;20345;-57
2021/01/04 09:06:42;;;;;;;136.77;44.75;;;10.90;57.90;;;;;;5086515;28;20523;-58
2021/01/04 09:09:21;;;;;;;111.53;44.47;;;10.80;58.00;;;;;;5076423;28;20114;-56
2021/01/04 09:12:02;;;;;;;129.95;46.63;;;10.90;57.90;;;;;;5082993;28;20159;-59
2021/01/04 09:15:08;;;;;;;135.85;49.13;;;10.80;58.10;;;;;;5084162;28;20560;-55
2021/01/04 09:17:59;;;;;;;137.43;46.03;;;10.90;58.20;;;;;;5073702;28;20561;-58
2021/01/04 09:21:07;;;;;;;139.70;48.53;;;10.80;58.40;;;;;;5076583;28;20082;-58
2021/01/04 09:23:38;;;;;;;;;;;10.80;58.40;;;;;;5005149;28;20074;-58
2021/01/04 09:26:15;;;;;;;139.70;45.90;;;10.80;58.50;;;;;;5063230;28;20006;-60
2021/01/04 09:29:05;;;;;;;149.00;47.90;;;10.80;58.70;;;;;;5082885;28;20137;-59
2021/01/04 09:31:33;;;;;;;142.27;47.65;;;10.80;58.50;;;;;;5083748;28;20075;-59
2021/01/04 09:33:59;;;;;;;144.02;48.72;;;10.70;58.50;;;;;;5096399;28;20167;-60
2021/01/04 09:36:26;;;;;;;127.88;46.15;;;10.70;58.40;;;;;;5103502;28;20071;-58
2021/01/04 09:39:04;;;;;;;;;;;10.70;58.60;;;;;;5104615;28;20069;-59
2021/01/04 09:41:30;;;;;;;;;;;10.70;58.50;;;;;;5103785;28;20039;-59
2021/01/04 09:44:09;;;;;;;122.93;41.38;;;10.60;58.70;;;;;;5104777;28;19999;-57
2021/01/04 09:47:22;;;;;;;110.85;41.22;;;10.60;58.40;;;;;;5093478;28;20083;-57
2021/01/04 09:49:55;;;;;;;110.25;39.85;;;10.50;58.60;;;;;;5072419;28;20080;-59
2021/01/04 09:52:29;;;;;;;106.93;41.17;;;10.40;58.90;;;;;;5107348;28;20075;-56
2021/01/04 09:55:01;;;;;;;110.50;41.17;;;10.40;59.20;;;;;;5108672;28;20070;-61
2021/01/04 09:57:32;;;;;;;98.57;39.90;;;10.40;59.60;;;;;;5108801;28;20075;-59
2021/01/04 09:59:59;;;;;;;106.15;43.55;;;10.50;59.40;;;;;;5108752;28;20083;-57
2021/01/04 10:02:31;;;;;;;96.70;40.28;;;10.40;59.70;;;;;;5108654;28;20424;-56
2021/01/04 10:05:12;;;;;;;117.80;42.80;;;10.40;59.80;;;;;;5109544;28;20082;-59
2021/01/04 10:07:43;;;;;;;113.40;44.05;;;10.40;60.00;;;;;;5106131;28;20075;-57
2021/01/04 10:10:13;;;;;;;112.93;42.38;;;10.40;60.50;;;;;;5105273;28;20153;-59
2021/01/04 10:12:40;;;;;;;117.28;43.03;;;10.40;60.30;;;;;;5106392;28;20221;-56
2021/01/04 10:15:24;;;;;;;107.97;44.08;;;10.50;60.20;;;;;;5105863;28;20090;-58
2021/01/04 10:18:20;;;;;;;131.05;46.50;;;10.50;60.40;;;;;;5108568;27;20168;-57
2021/01/04 10:20:52;;;;;;;119.43;45.60;;;10.40;60.50;;;;;;5096850;27;20424;-59
2021/01/04 10:23:43;;;;;;;111.93;45.58;;;10.30;60.90;;;;;;5110363;28;20536;-60
2021/01/04 10:26:11;;;;;;;117.15;45.53;;;10.30;61.10;;;;;;5104277;28;20103;-61
2021/01/04 10:28:39;;;;;;;102.95;43.38;;;10.30;60.60;;;;;;5109062;28;20068;-57
2021/01/04 10:31:15;;;;;;;110.00;43.60;;;10.30;60.50;;;;;;5105795;28;20076;-61
2021/01/04 10:33:42;;;;;;;106.60;43.45;;;10.30;61.00;;;;;;5107160;28;20202;-61
2021/01/04 10:36:13;;;;;;;113.65;42.67;;;10.10;60.80;;;;;;5108257;28;20082;-59
2021/01/04 10:38:55;;;;;;;104.95;44.47;;;10.10;60.80;;;;;;5106677;28;20483;-59
2021/01/04 10:41:29;;;;;;;102.30;42.88;;;10.20;60.70;;;;;;5107972;28;20524;-56
2021/01/04 10:44:12;;;;;;;122.05;45.47;;;10.20;60.50;;;;;;5109799;28;20084;-57
2021/01/04 10:46:40;;;;;;;121.93;46.15;;;10.20;60.40;;;;;;5103572;28;20081;-60
2021/01/04 10:49:10;;;;;;;131.63;46.40;;;10.20;60.40;;;;;;5107621;28;20504;-58
2021/01/04 10:51:50;;;;;;;117.13;44.45;;;10.20;60.60;;;;;;5109660;28;20182;-57
2021/01/04 10:54:20;;;;;;;113.72;49.00;;;10.20;60.90;;;;;;5107343;28;20183;-58
2021/01/04 10:57:12;;;;;;;130.98;48.80;;;10.20;60.80;;;;;;5107781;28;20068;-58
2021/01/04 10:59:53;;;;;;;113.47;51.17;;;10.10;60.60;;;;;;5107289;28;20068;-58
2021/01/04 11:02:20;;;;;;;122.88;50.22;;;10.10;60.60;;;;;;5108398;28;20076;-56
2021/01/04 11:04:55;;;;;;;;;;;10.10;60.50;;;;;;5108435;28;20469;-58
2021/01/04 11:07:29;;;;;;;139.63;53.60;;;10.10;60.10;;;;;;5106132;28;20454;-58
2021/01/04 11:09:56;;;;;;;144.85;55.25;;;10.00;60.30;;;;;;5104126;28;20531;-59
2021/01/04 11:12:28;;;;;;;139.20;54.00;;;10.10;61.00;;;;;;5104805;28;20088;-58
2021/01/04 11:14:56;;;;;;;146.10;54.80;;;10.10;61.20;;;;;;5103322;28;20103;-60
2021/01/04 11:17:29;;;;;;;133.00;55.97;;;10.10;60.90;;;;;;5107881;28;20450;-60
2021/01/04 11:20:15;;;;;;;148.48;53.92;;;10.10;61.10;;;;;;5106246;28;20076;-59
2021/01/04 11:22:42;;;;;;;133.13;51.17;;;10.10;60.70;;;;;;5109325;28;20118;-58
2021/01/04 11:25:10;;;;;;;127.72;51.83;;;10.00;60.50;;;;;;5097276;28;20091;-59
2021/01/04 11:27:37;;;;;;;123.78;50.05;;;10.00;60.60;;;;;;5098719;28;20091;-57
2021/01/04 11:30:06;;;;;;;;;;;10.00;60.90;;;;;;5106998;28;20099;-58
2021/01/04 11:32:33;;;;;;;134.88;49.35;;;10.00;60.20;;;;;;5081412;28;20067;-59
2021/01/04 11:35:00;;;;;;;;;;;10.00;60.30;;;;;;5086900;28;20087;-56
2021/01/04 11:37:28;;;;;;;122.68;48.70;;;10.00;60.00;;;;;;5086004;28;19974;-59
2021/01/04 11:39:55;;;;;;;114.93;49.58;;;10.10;60.00;;;;;;5086792;28;20100;-59
2021/01/04 11:42:21;;;;;;;106.43;46.13;;;9.90;59.60;;;;;;5084992;28;20125;-57
2021/01/04 11:44:48;;;;;;;116.32;46.00;;;9.90;60.70;;;;;;5085621;28;20068;-59
2021/01/04 11:47:15;;;;;;;110.28;45.65;;;9.90;59.60;;;;;;5085243;28;20080;-56
2021/01/04 11:49:41;;;;;;;;;;;10.00;59.40;;;;;;5085128;28;20080;-59
2021/01/04 11:52:07;;;;;;;102.40;44.00;;;10.00;59.20;;;;;;5084194;28;19960;-58
2021/01/04 11:54:34;;;;;;;113.88;44.08;;;10.00;59.30;;;;;;5084697;28;20523;-58
2021/01/04 11:57:00;;;;;;;;;;;9.90;59.10;;;;;;5084482;28;20158;-56
2021/01/04 11:59:26;;;;;;;114.65;45.10;;;9.80;58.90;;;;;;5081930;28;19957;-59
2021/01/04 12:01:54;;;;;;;;;;;9.90;59.00;;;;;;5082614;28;20133;-56
2021/01/04 12:04:20;;;;;;;115.63;43.42;;;9.90;58.30;;;;;;5087366;28;19956;-58
2021/01/04 12:06:48;;;;;;;;;;;9.90;58.10;;;;;;5087014;28;20077;-59
2021/01/04 12:09:14;;;;;;;90.43;38.60;;;9.90;58.10;;;;;;5083658;28;20070;-57
2021/01/04 12:11:41;;;;;;;;;;;9.80;57.80;;;;;;5064507;28;20076;-59
2021/01/04 12:14:08;;;;;;;102.93;35.15;;;9.80;57.60;;;;;;5085738;28;19977;-58
2021/01/04 12:16:35;;;;;;;73.47;32.33;;;9.80;57.20;;;;;;5082794;28;20152;-59
2021/01/04 12:19:04;;;;;;;77.18;30.00;;;9.90;56.80;;;;;;5084005;28;20542;-59
2021/01/04 12:21:31;;;;;;;81.68;28.88;;;9.90;56.30;;;;;;5066822;28;20413;-56
2021/01/04 12:23:57;;;;;;;;;;;9.90;55.70;;;;;;5085426;28;20591;-55
2021/01/04 12:26:23;;;;;;;84.32;27.25;;;9.90;55.80;;;;;;5084662;28;19972;-57
2021/01/04 12:28:50;;;;;;;;;;;9.80;56.10;;;;;;5082902;28;20068;-59
2021/01/04 12:31:21;;;;;;;75.13;33.42;;;9.80;56.00;;;;;;5084116;28;19956;-59
2021/01/04 12:33:48;;;;;;;97.75;35.08;;;9.70;56.20;;;;;;5075876;28;20132;-59
2021/01/04 12:36:23;;;;;;;94.07;37.40;;;9.80;56.60;;;;;;5078598;28;20549;-60
2021/01/04 12:38:50;;;;;;;97.15;38.38;;;9.80;57.00;;;;;;5085870;28;20162;-57
2021/01/04 12:41:17;;;;;;;90.00;37.88;;;9.70;57.60;;;;;;5082550;28;20065;-57
2021/01/04 12:43:45;;;;;;;96.50;38.20;;;9.70;58.20;;;;;;5079591;28;20069;-60
2021/01/04 12:46:14;;;;;;;105.28;37.25;;;9.70;58.20;;;;;;5080518;28;20554;-60
2021/01/04 12:48:41;;;;;;;101.88;38.22;;;9.60;58.40;;;;;;5081896;28;20544;-58
2021/01/04 12:51:09;;;;;;;95.07;38.55;;;9.50;58.70;;;;;;5081910;28;20076;-56
2021/01/04 12:53:35;;;;;;;91.65;37.05;;;9.60;58.90;;;;;;5081986;28;20092;-60
2021/01/04 12:56:05;;;;;;;108.13;38.20;;;9.60;58.70;;;;;;5064092;28;21456;-59
2021/01/04 12:58:31;;;;;;;97.15;38.42;;;9.60;58.40;;;;;;5085308;28;20077;-60
2021/01/04 13:00:57;;;;;;;;;;;9.60;58.20;;;;;;5082637;28;20104;-58
2021/01/04 13:03:24;;;;;;;103.03;38.92;;;9.50;58.60;;;;;;5084811;28;19957;-57
2021/01/04 13:05:50;;;;;;;;;;;9.40;58.70;;;;;;5087650;28;20084;-59
2021/01/04 13:08:17;;;;;;;104.00;38.88;;;9.40;58.50;;;;;;5087426;28;20282;-58
2021/01/04 13:10:43;;;;;;;;;;;9.40;58.80;;;;;;5088256;28;20132;-59
2021/01/04 13:13:10;;;;;;;91.82;38.67;;;9.40;59.20;;;;;;5084410;28;20083;-58
2021/01/04 13:15:36;;;;;;;;;;;9.40;59.20;;;;;;5084827;28;20151;-60
2021/01/04 13:18:02;;;;;;;99.43;38.42;;;9.40;59.00;;;;;;5085857;28;19970;-60
2021/01/04 13:20:29;;;;;;;92.20;38.25;;;9.30;59.00;;;;;;5067686;28;20104;-60
2021/01/04 13:22:55;;;;;;;;;;;9.30;58.90;;;;;;5085703;28;20074;-59
2021/01/04 13:25:22;;;;;;;86.47;35.65;;;9.20;58.90;;;;;;5087860;28;20285;-58